createdAt,value
2022-12-16T00:02:02.675Z,90.43
2022-12-16T00:04:31.482Z,72.65
2022-12-16T00:07:00.360Z,83.50
2022-12-16T00:09:32.947Z,85.57
2022-12-16T00:12:01.659Z,85.15
2022-12-16T00:14:34.076Z,83.95
2022-12-16T00:17:04.064Z,93.20
2022-12-16T00:22:02.856Z,77.80
2022-12-16T00:27:00.051Z,85.43
2022-12-16T00:29:32.872Z,92.57
2022-12-16T00:32:04.652Z,86.68
2022-12-16T00:34:33.494Z,81.82
2022-12-16T00:37:07.203Z,92.05
2022-12-16T00:39:35.911Z,95.78
2022-12-16T00:42:04.562Z,93.28
2022-12-16T00:44:36.729Z,100.10
2022-12-16T00:47:05.427Z,107.47
2022-12-16T00:49:37.122Z,115.57
2022-12-16T00:52:10.042Z,88.28
2022-12-16T00:54:38.751Z,103.35
2022-12-16T00:57:07.431Z,98.43
2022-12-16T00:59:38.234Z,114.82
2022-12-16T01:02:11.146Z,96.68
2022-12-16T01:04:42.821Z,99.10
2022-12-16T01:07:14.323Z,95.32
2022-12-16T01:09:45.223Z,97.47
2022-12-16T01:12:16.278Z,92.47
2022-12-16T01:14:48.598Z,94.28
2022-12-16T01:17:17.446Z,94.47
2022-12-16T01:19:46.241Z,85.13
2022-12-16T01:22:15.359Z,85.60
2022-12-16T01:24:45.807Z,91.30
2022-12-16T01:27:15.654Z,78.40
2022-12-16T01:32:21.373Z,82.05
2022-12-16T01:34:55.224Z,71.77
2022-12-16T01:37:24.856Z,74.90
2022-12-16T01:39:59.309Z,76.50
2022-12-16T01:42:31.417Z,78.20
2022-12-16T01:45:35.360Z,80.00
2022-12-16T01:48:15.188Z,79.85
2022-12-16T01:50:47.235Z,77.35
2022-12-16T01:53:16.259Z,70.47
2022-12-16T01:55:49.996Z,85.53
2022-12-16T01:58:22.546Z,71.85
2022-12-16T02:00:54.940Z,83.18
2022-12-16T02:03:24.295Z,82.13
2022-12-16T02:05:53.737Z,80.55
2022-12-16T02:08:22.907Z,80.00
2022-12-16T02:11:12.301Z,79.35
2022-12-16T02:14:03.602Z,80.45
2022-12-16T02:16:43.296Z,84.82
2022-12-16T02:19:33.344Z,85.63
2022-12-16T02:22:15.964Z,80.35
2022-12-16T02:25:23.951Z,85.53
2022-12-16T02:28:12.355Z,88.70
2022-12-16T02:31:06.621Z,84.65
2022-12-16T02:33:56.946Z,84.32
2022-12-16T02:36:42.060Z,71.90
2022-12-16T02:39:16.625Z,86.00
2022-12-16T02:41:49.222Z,86.32
2022-12-16T02:44:18.861Z,71.47
2022-12-16T02:46:56.245Z,77.28
2022-12-16T02:49:50.868Z,86.60
2022-12-16T02:52:23.090Z,77.05
2022-12-16T02:54:55.588Z,81.65
2022-12-16T02:57:56.211Z,77.32
2022-12-16T03:00:29.656Z,76.93
2022-12-16T03:03:08.860Z,73.30
2022-12-16T03:05:42.159Z,82.75
2022-12-16T03:08:15.001Z,82.32
2022-12-16T03:10:46.717Z,72.38
2022-12-16T03:13:18.741Z,75.05
2022-12-16T03:15:51.206Z,72.57
2022-12-16T03:18:22.650Z,71.15
2022-12-16T03:20:56.555Z,70.65
2022-12-16T03:23:29.709Z,77.57
2022-12-16T03:26:04.862Z,65.82
2022-12-16T03:28:44.709Z,63.00
2022-12-16T03:31:25.485Z,60.58
2022-12-16T03:34:08.554Z,64.38
2022-12-16T03:36:38.890Z,61.47
2022-12-16T03:39:13.991Z,67.22
2022-12-16T03:41:48.129Z,62.50
2022-12-16T03:44:16.920Z,62.88
2022-12-16T03:46:45.675Z,58.97
2022-12-16T03:49:15.886Z,62.40
2022-12-16T03:51:47.110Z,64.82
2022-12-16T03:54:15.738Z,68.22
2022-12-16T03:56:44.368Z,61.22
2022-12-16T03:59:13.074Z,62.38
2022-12-16T04:01:43.541Z,60.13
2022-12-16T04:04:12.221Z,62.90
2022-12-16T04:06:42.341Z,64.53
2022-12-16T04:09:13.686Z,61.22
2022-12-16T04:12:05.260Z,58.92
2022-12-16T04:14:53.666Z,52.65
2022-12-16T04:17:44.306Z,72.30
2022-12-16T04:20:47.399Z,62.70
2022-12-16T04:23:35.198Z,64.30
2022-12-16T04:26:04.179Z,54.17
2022-12-16T04:28:32.934Z,65.60
2022-12-16T04:31:02.833Z,58.45
2022-12-16T04:36:34.984Z,51.22
2022-12-16T04:39:22.617Z,51.47
2022-12-16T04:42:11.657Z,52.90
2022-12-16T04:44:58.123Z,55.67
2022-12-16T04:47:44.360Z,52.05
2022-12-16T04:50:33.892Z,56.20
2022-12-16T04:53:20.262Z,53.55
2022-12-16T04:56:08.947Z,53.08
2022-12-16T04:58:54.804Z,55.90
2022-12-16T05:01:41.094Z,61.28
2022-12-16T05:04:27.099Z,52.38
2022-12-16T05:07:13.213Z,50.28
2022-12-16T05:09:59.172Z,56.63
2022-12-16T05:12:46.458Z,52.65
2022-12-16T05:15:32.576Z,50.78
2022-12-16T05:18:25.882Z,53.90
2022-12-16T05:21:11.818Z,53.92
2022-12-16T05:23:58.025Z,52.65
2022-12-16T05:26:46.948Z,51.63
2022-12-16T05:29:37.683Z,38.20
2022-12-16T05:32:24.188Z,49.40
2022-12-16T05:35:09.552Z,48.95
2022-12-16T05:37:55.912Z,46.38
2022-12-16T05:40:42.194Z,47.85
2022-12-16T05:43:36.752Z,56.65
2022-12-16T05:46:24.634Z,53.20
2022-12-16T05:49:10.623Z,54.67
2022-12-16T05:51:56.499Z,45.50
2022-12-16T05:54:42.360Z,56.08
2022-12-16T05:57:28.586Z,52.03
2022-12-16T06:00:14.690Z,48.35
2022-12-16T06:03:02.342Z,45.92
2022-12-16T06:05:48.740Z,51.70
2022-12-16T06:08:34.458Z,46.90
2022-12-16T06:11:28.861Z,49.50
2022-12-16T06:14:15.199Z,45.45
2022-12-16T06:17:01.225Z,46.55
2022-12-16T06:19:48.432Z,49.00
2022-12-16T06:22:34.651Z,51.53
2022-12-16T06:25:20.666Z,47.80
2022-12-16T06:28:10.088Z,58.60
2022-12-16T06:30:56.783Z,43.42
2022-12-16T06:33:43.081Z,49.30
2022-12-16T06:36:30.821Z,50.38
2022-12-16T06:39:17.089Z,39.45
2022-12-16T06:42:03.211Z,48.10
2022-12-16T06:44:49.420Z,45.78
2022-12-16T06:47:35.626Z,44.38
2022-12-16T06:50:21.578Z,44.70
2022-12-16T06:53:09.292Z,49.92
2022-12-16T06:55:55.173Z,45.60
2022-12-16T06:58:41.231Z,43.30
2022-12-16T07:01:27.325Z,45.25
2022-12-16T07:04:13.218Z,46.60
2022-12-16T07:06:59.248Z,51.22
2022-12-16T07:09:46.276Z,50.13
2022-12-16T07:12:32.408Z,64.85
2022-12-16T07:15:29.928Z,98.78
2022-12-16T07:18:15.993Z,777.75
2022-12-16T07:21:02.090Z,649.33
2022-12-16T07:23:48.304Z,232.80
2022-12-16T07:26:35.834Z,55.88
2022-12-16T07:29:24.303Z,70.03
2022-12-16T07:32:10.552Z,72.90
2022-12-16T07:34:56.711Z,65.13
2022-12-16T07:37:43.071Z,71.25
2022-12-16T07:40:29.594Z,52.85
2022-12-16T07:43:16.844Z,49.38
2022-12-16T07:46:02.767Z,44.83
2022-12-16T07:48:49.116Z,52.15
2022-12-16T07:51:35.157Z,53.55
2022-12-16T07:54:21.047Z,51.35
2022-12-16T07:57:06.743Z,50.05
2022-12-16T07:59:53.930Z,54.53
2022-12-16T08:02:40.034Z,48.33
2022-12-16T08:05:26.598Z,49.78
2022-12-16T08:08:14.513Z,51.25
2022-12-16T08:11:00.543Z,50.05
2022-12-16T08:13:46.821Z,51.17
2022-12-16T08:16:34.395Z,51.95
2022-12-16T08:19:20.506Z,52.17
2022-12-16T08:22:06.428Z,54.03
2022-12-16T08:24:53.802Z,47.35
2022-12-16T08:30:29.341Z,47.53
2022-12-16T08:33:19.730Z,50.85
2022-12-16T08:36:16.998Z,48.08
2022-12-16T08:39:03.289Z,51.33
2022-12-16T08:41:49.319Z,49.33
2022-12-16T08:44:37.381Z,54.13
2022-12-16T08:47:25.873Z,54.40
2022-12-16T08:50:13.369Z,56.00
2022-12-16T08:52:59.019Z,52.10
2022-12-16T08:55:44.962Z,54.65
2022-12-16T08:58:31.147Z,52.30
2022-12-16T09:01:17.341Z,52.05
2022-12-16T09:04:03.384Z,54.00
2022-12-16T09:06:50.915Z,52.03
2022-12-16T09:09:37.161Z,291.80
2022-12-16T09:12:23.523Z,129.55
2022-12-16T09:15:09.509Z,64.80
2022-12-16T09:17:55.434Z,61.78
2022-12-16T09:20:42.252Z,58.45
2022-12-16T09:23:29.850Z,62.13
2022-12-16T09:26:16.130Z,55.00
2022-12-16T09:29:02.268Z,54.35
2022-12-16T09:31:48.120Z,57.80
2022-12-16T09:34:34.296Z,53.90
2022-12-16T09:37:20.392Z,59.03
2022-12-16T09:40:07.999Z,64.60
2022-12-16T09:43:17.580Z,56.47
2022-12-16T09:46:13.935Z,62.20
2022-12-16T09:49:08.829Z,59.55
2022-12-16T09:51:57.098Z,58.00
2022-12-16T09:54:45.955Z,61.80
2022-12-16T09:57:34.332Z,72.07
2022-12-16T10:00:23.579Z,52.67
2022-12-16T10:03:10.251Z,59.65
2022-12-16T10:06:08.722Z,64.60
2022-12-16T10:09:00.157Z,87.80
2022-12-16T10:11:58.181Z,69.03
2022-12-16T10:15:04.755Z,74.65
2022-12-16T10:17:50.684Z,56.75
2022-12-16T10:20:56.258Z,67.57
2022-12-16T10:23:47.378Z,55.42
2022-12-16T10:26:39.735Z,91.45
2022-12-16T10:29:34.651Z,63.63
2022-12-16T10:32:33.052Z,56.70
2022-12-16T10:35:19.874Z,74.30
2022-12-16T10:38:06.472Z,61.88
2022-12-16T10:40:54.322Z,67.60
2022-12-16T10:43:47.678Z,87.28
2022-12-16T10:46:39.225Z,69.75
2022-12-16T10:49:31.453Z,111.03
2022-12-16T10:52:17.527Z,73.53
2022-12-16T10:55:09.906Z,78.00
2022-12-16T10:58:06.698Z,83.18
2022-12-16T11:01:02.540Z,63.20
2022-12-16T11:03:50.993Z,59.45
2022-12-16T11:06:44.071Z,61.60
2022-12-16T11:09:51.090Z,63.35
2022-12-16T11:12:43.226Z,55.80
2022-12-16T11:15:42.175Z,48.38
2022-12-16T11:18:34.198Z,65.10
2022-12-16T11:21:29.111Z,55.67
2022-12-16T11:24:32.630Z,54.67
2022-12-16T11:27:20.541Z,54.85
2022-12-16T11:30:14.297Z,55.85
2022-12-16T11:33:05.135Z,55.25
2022-12-16T11:35:53.846Z,54.60
2022-12-16T11:38:44.840Z,50.97
2022-12-16T11:41:42.355Z,55.63
2022-12-16T11:44:37.844Z,58.15
2022-12-16T11:47:35.334Z,52.38
2022-12-16T11:50:30.000Z,51.80
2022-12-16T11:53:18.232Z,70.57
2022-12-16T11:56:15.804Z,57.72
2022-12-16T11:59:07.504Z,56.78
2022-12-16T12:01:58.241Z,57.08
2022-12-16T12:04:44.301Z,61.97
2022-12-16T12:07:45.469Z,67.50
2022-12-16T12:11:08.995Z,73.78
2022-12-16T12:14:13.906Z,59.08
2022-12-16T12:17:13.484Z,66.65
2022-12-16T12:20:11.048Z,69.88
2022-12-16T12:22:58.313Z,84.13
2022-12-16T12:25:52.406Z,76.32
2022-12-16T12:28:49.814Z,66.78
2022-12-16T12:31:49.621Z,77.72
2022-12-16T12:34:44.165Z,95.72
2022-12-16T12:37:42.381Z,74.45
2022-12-16T12:40:41.036Z,63.28
2022-12-16T12:43:36.542Z,66.65
2022-12-16T12:46:33.595Z,60.92
2022-12-16T12:49:26.653Z,69.32
2022-12-16T12:52:22.814Z,70.43
2022-12-16T12:55:13.366Z,68.35
2022-12-16T12:58:02.425Z,76.75
2022-12-16T13:00:53.098Z,92.65
2022-12-16T13:03:49.280Z,73.97
2022-12-16T13:06:37.628Z,73.60
2022-12-16T13:09:42.894Z,91.38
2022-12-16T13:12:46.979Z,66.15
2022-12-16T13:15:53.038Z,69.10
2022-12-16T13:18:44.361Z,69.93
2022-12-16T13:22:08.935Z,66.72
2022-12-16T13:25:03.147Z,68.05
2022-12-16T13:28:05.574Z,70.28
2022-12-16T13:30:53.520Z,69.65
2022-12-16T13:33:56.045Z,65.80
2022-12-16T13:36:53.440Z,72.40
2022-12-16T13:39:43.933Z,68.88
2022-12-16T13:43:06.374Z,68.50
2022-12-16T13:45:55.680Z,77.22
2022-12-16T13:48:54.028Z,77.63
2022-12-16T13:52:19.540Z,77.57
2022-12-16T13:55:24.398Z,69.97
2022-12-16T13:58:20.775Z,73.82
2022-12-16T14:01:19.830Z,71.25
2022-12-16T14:04:10.156Z,70.57
2022-12-16T14:06:58.088Z,67.72
2022-12-16T14:10:07.279Z,62.97
2022-12-16T14:13:18.413Z,66.47
2022-12-16T14:19:11.553Z,65.30
2022-12-16T14:22:08.854Z,65.60
2022-12-16T14:24:57.550Z,63.65
2022-12-16T14:27:44.382Z,60.70
2022-12-16T14:30:39.035Z,58.53
2022-12-16T14:33:44.200Z,62.17
2022-12-16T14:36:45.092Z,61.15
2022-12-16T14:39:38.774Z,65.10
2022-12-16T14:42:46.767Z,82.82
2022-12-16T14:45:48.009Z,63.65
2022-12-16T14:48:47.627Z,82.32
2022-12-16T14:52:03.804Z,68.57
2022-12-16T14:54:55.475Z,64.80
2022-12-16T14:57:43.095Z,69.80
2022-12-16T15:00:35.105Z,74.45
2022-12-16T15:03:46.230Z,65.43
2022-12-16T15:06:38.928Z,68.53
2022-12-16T15:09:35.567Z,57.95
2022-12-16T15:12:23.045Z,59.58
2022-12-16T15:15:16.168Z,64.53
2022-12-16T15:18:09.950Z,61.33
2022-12-16T15:21:08.732Z,55.75
2022-12-16T15:24:01.080Z,58.13
2022-12-16T15:26:50.681Z,60.10
2022-12-16T15:29:48.948Z,53.67
2022-12-16T15:33:00.415Z,61.92
2022-12-16T15:38:54.936Z,58.63
2022-12-16T15:41:49.257Z,60.45
2022-12-16T15:44:37.954Z,61.05
2022-12-16T15:47:44.229Z,65.85
2022-12-16T15:50:35.386Z,61.92
2022-12-16T15:53:34.779Z,61.95
2022-12-16T15:56:24.156Z,68.38
2022-12-16T15:59:33.402Z,74.97
2022-12-16T16:02:26.682Z,81.70
2022-12-16T16:05:13.449Z,80.07
2022-12-16T16:08:03.870Z,85.75
2022-12-16T16:10:52.162Z,73.70
2022-12-16T16:13:39.884Z,82.53
2022-12-16T16:16:29.349Z,72.30
2022-12-16T16:19:16.834Z,82.80
2022-12-16T16:22:02.939Z,72.38
2022-12-16T16:24:49.446Z,79.03
2022-12-16T16:27:37.177Z,80.78
2022-12-16T16:30:27.884Z,80.95
2022-12-16T16:33:16.913Z,77.95
2022-12-16T16:36:02.762Z,73.90
2022-12-16T16:38:47.823Z,87.15
2022-12-16T16:41:34.799Z,86.32
2022-12-16T16:44:21.595Z,80.93
2022-12-16T16:47:09.158Z,87.45
2022-12-16T16:49:59.985Z,88.70
2022-12-16T16:52:46.935Z,83.45
2022-12-16T16:55:34.477Z,88.63
2022-12-16T16:58:25.911Z,104.75
2022-12-16T17:01:11.828Z,95.95
2022-12-16T17:03:59.735Z,87.22
2022-12-16T17:06:46.000Z,83.35
2022-12-16T17:09:32.130Z,86.65
2022-12-16T17:12:17.911Z,90.95
2022-12-16T17:15:03.816Z,100.22
2022-12-16T17:17:49.736Z,94.40
2022-12-16T17:20:37.672Z,91.65
2022-12-16T17:23:23.972Z,94.72
2022-12-16T17:26:10.169Z,95.25
2022-12-16T17:28:56.065Z,88.80
2022-12-16T17:31:42.074Z,89.90
2022-12-16T17:34:28.323Z,91.75
2022-12-16T17:37:24.553Z,89.90
2022-12-16T17:40:13.086Z,91.10
2022-12-16T17:42:58.959Z,82.38
2022-12-16T17:45:44.889Z,91.13
2022-12-16T17:48:30.858Z,81.60
2022-12-16T17:51:16.695Z,89.63
2022-12-16T17:54:12.139Z,101.38
2022-12-16T17:57:02.027Z,87.00
2022-12-16T17:59:51.771Z,83.40
2022-12-16T18:02:40.936Z,91.57
2022-12-16T18:05:34.717Z,77.75
2022-12-16T18:08:24.137Z,91.53
2022-12-16T18:11:13.107Z,90.70
2022-12-16T18:13:58.876Z,75.90
2022-12-16T18:16:44.904Z,86.05
2022-12-16T18:19:36.752Z,88.75
2022-12-16T18:22:38.302Z,89.95
2022-12-16T18:25:24.674Z,86.93
2022-12-16T18:28:11.905Z,80.75
2022-12-16T18:30:58.480Z,86.30
2022-12-16T18:33:44.549Z,80.07
2022-12-16T18:36:30.680Z,89.85
2022-12-16T18:39:19.907Z,83.07
2022-12-16T18:42:06.682Z,88.00
2022-12-16T18:45:00.605Z,86.32
2022-12-16T18:47:47.387Z,94.57
2022-12-16T18:50:37.848Z,87.60
2022-12-16T18:53:25.138Z,81.43
2022-12-16T18:56:18.737Z,85.88
2022-12-16T18:59:05.013Z,90.28
2022-12-16T19:01:52.725Z,82.20
2022-12-16T19:04:41.299Z,79.30
2022-12-16T19:07:33.422Z,93.20
2022-12-16T19:10:19.992Z,89.13
2022-12-16T19:13:06.113Z,89.55
2022-12-16T19:15:52.691Z,85.00
2022-12-16T19:18:40.458Z,82.57
2022-12-16T19:21:29.930Z,92.40
2022-12-16T19:24:16.242Z,98.18
2022-12-16T19:27:03.396Z,82.40
2022-12-16T19:29:49.694Z,94.88
2022-12-16T19:32:35.961Z,83.13
2022-12-16T19:35:24.109Z,91.30
2022-12-16T19:38:12.876Z,87.32
2022-12-16T19:41:01.810Z,92.63
2022-12-16T19:43:47.920Z,80.07
2022-12-16T19:46:34.194Z,90.68
2022-12-16T19:49:20.591Z,86.35
2022-12-16T19:52:08.368Z,95.88
2022-12-16T19:54:56.364Z,88.82
2022-12-16T19:57:42.742Z,100.82
2022-12-16T20:00:29.708Z,95.28
2022-12-16T20:03:16.098Z,91.80
2022-12-16T20:06:02.319Z,92.30
2022-12-16T20:08:50.157Z,97.07
2022-12-16T20:11:36.376Z,110.40
2022-12-16T20:14:22.704Z,226.65
2022-12-16T20:17:08.721Z,119.95
2022-12-16T20:23:01.632Z,100.90
2022-12-16T20:25:49.286Z,103.63
2022-12-16T20:28:35.328Z,111.25
2022-12-16T20:31:21.907Z,109.38
2022-12-16T20:34:12.674Z,107.38
2022-12-16T20:36:58.520Z,105.43
2022-12-16T20:39:56.893Z,105.70
2022-12-16T20:42:49.622Z,110.22
2022-12-16T20:45:36.233Z,109.68
2022-12-16T20:48:22.843Z,108.07
2022-12-16T20:51:13.419Z,112.63
2022-12-16T20:54:00.214Z,109.63
2022-12-16T20:56:47.080Z,108.13
2022-12-16T20:59:34.403Z,111.65
2022-12-16T21:02:23.453Z,99.70
2022-12-16T21:05:14.870Z,112.15
2022-12-16T21:08:01.068Z,104.00
2022-12-16T21:10:47.213Z,95.72
2022-12-16T21:13:35.098Z,105.10
2022-12-16T21:16:25.191Z,105.47
2022-12-16T21:19:11.926Z,100.47
2022-12-16T21:21:57.707Z,103.70
2022-12-16T21:24:58.686Z,101.10
2022-12-16T21:27:44.782Z,100.43
2022-12-16T21:30:31.074Z,108.50
2022-12-16T21:33:18.531Z,98.90
2022-12-16T21:36:10.569Z,99.20
2022-12-16T21:38:57.902Z,104.40
2022-12-16T21:41:46.910Z,100.90
2022-12-16T21:44:32.564Z,93.97
2022-12-16T21:47:19.007Z,91.80
2022-12-16T21:50:06.464Z,102.47
2022-12-16T21:52:55.313Z,104.63
2022-12-16T21:55:42.707Z,104.22
2022-12-16T21:58:26.241Z,99.10
2022-12-16T22:01:17.676Z,98.18
2022-12-16T22:04:03.933Z,105.85
2022-12-16T22:06:51.694Z,92.25
2022-12-16T22:09:37.565Z,95.82
2022-12-16T22:12:24.316Z,93.22
2022-12-16T22:15:10.728Z,96.70
2022-12-16T22:17:58.593Z,92.85
2022-12-16T22:21:03.270Z,90.50
2022-12-16T22:23:51.053Z,79.55
2022-12-16T22:26:37.895Z,69.57
2022-12-16T22:29:23.870Z,63.38
2022-12-16T22:32:12.425Z,67.22
2022-12-16T22:34:58.143Z,68.10
2022-12-16T22:37:44.415Z,63.25
2022-12-16T22:40:31.895Z,50.20
2022-12-16T22:43:19.283Z,60.83
2022-12-16T22:46:18.859Z,49.38
2022-12-16T22:49:07.701Z,48.40
2022-12-16T22:51:55.784Z,54.28
2022-12-16T22:54:45.214Z,59.22
2022-12-16T22:57:35.881Z,60.53
2022-12-16T23:00:22.418Z,64.65
2022-12-16T23:03:20.183Z,63.00
2022-12-16T23:06:07.036Z,73.70
2022-12-16T23:08:53.689Z,69.40
2022-12-16T23:11:41.239Z,77.45
2022-12-16T23:14:29.086Z,79.55
2022-12-16T23:17:15.252Z,85.43
2022-12-16T23:20:01.734Z,76.75
2022-12-16T23:22:51.829Z,97.35
2022-12-16T23:25:38.468Z,83.90
2022-12-16T23:28:24.730Z,78.32
2022-12-16T23:31:12.979Z,89.65
2022-12-16T23:33:59.413Z,80.78
2022-12-16T23:36:45.970Z,89.63
2022-12-16T23:39:32.262Z,92.70
2022-12-16T23:42:18.431Z,95.88
2022-12-16T23:45:05.136Z,92.10
2022-12-16T23:47:56.305Z,91.05
2022-12-16T23:50:54.583Z,105.78
2022-12-16T23:53:42.387Z,80.47
2022-12-16T23:56:28.918Z,73.45
2022-12-16T23:59:16.519Z,62.92
